sensor_id;sensor_type;location;lat;lon;timestamp;pressure;altitude;pressure_sealevel;temperature;humidity
64668;BME280;51077;42.716;23.344;2024-03-02T00:01:50;94836.22;;;11.03;60.11
64668;BME280;51077;42.716;23.344;2024-03-02T00:04:16;94831.16;;;11.07;60.05
64668;BME280;51077;42.716;23.344;2024-03-02T00:06:42;94835.25;;;11.01;60.24
64668;BME280;51077;42.716;23.344;2024-03-02T00:09:09;94836.81;;;10.96;60.38
64668;BME280;51077;42.716;23.344;2024-03-02T00:11:37;94836.81;;;10.96;60.35
64668;BME280;51077;42.716;23.344;2024-03-02T00:14:04;94826.91;;;10.93;60.55
64668;BME280;51077;42.716;23.344;2024-03-02T00:16:31;94830.16;;;10.92;60.69
64668;BME280;51077;42.716;23.344;2024-03-02T00:19:01;94842.09;;;10.94;60.53
64668;BME280;51077;42.716;23.344;2024-03-02T00:21:27;94834.06;;;10.96;60.56
64668;BME280;51077;42.716;23.344;2024-03-02T00:23:55;94835.78;;;10.99;60.42
64668;BME280;51077;42.716;23.344;2024-03-02T00:26:20;94828.38;;;10.94;60.48
64668;BME280;51077;42.716;23.344;2024-03-02T00:28:46;94832.59;;;10.95;60.38
64668;BME280;51077;42.716;23.344;2024-03-02T00:31:12;94829.66;;;10.93;60.39
64668;BME280;51077;42.716;23.344;2024-03-02T00:33:46;94824.06;;;10.99;60.12
64668;BME280;51077;42.716;23.344;2024-03-02T00:36:21;94821.41;;;10.93;60.19
64668;BME280;51077;42.716;23.344;2024-03-02T00:38:51;94814.97;;;10.91;60.57
64668;BME280;51077;42.716;23.344;2024-03-02T00:41:30;94815.69;;;10.91;60.61
64668;BME280;51077;42.716;23.344;2024-03-02T00:44:02;94821.91;;;10.92;60.41
64668;BME280;51077;42.716;23.344;2024-03-02T00:46:38;94813.91;;;10.94;60.25
64668;BME280;51077;42.716;23.344;2024-03-02T00:49:21;94822.88;;;10.94;60.39
64668;BME280;51077;42.716;23.344;2024-03-02T00:51:51;94823.09;;;10.96;60.28
64668;BME280;51077;42.716;23.344;2024-03-02T00:54:21;94813.19;;;10.93;60.33
64668;BME280;51077;42.716;23.344;2024-03-02T00:56:47;94811.69;;;10.92;60.51
64668;BME280;51077;42.716;23.344;2024-03-02T00:59:13;94815.94;;;10.93;60.37
64668;BME280;51077;42.716;23.344;2024-03-02T01:01:39;94811.91;;;10.94;60.48
64668;BME280;51077;42.716;23.344;2024-03-02T01:04:04;94815.38;;;10.95;60.44
64668;BME280;51077;42.716;23.344;2024-03-02T01:06:30;94805.69;;;10.94;60.60
64668;BME280;51077;42.716;23.344;2024-03-02T01:08:56;94804.41;;;10.95;60.44
64668;BME280;51077;42.716;23.344;2024-03-02T01:11:21;94816.34;;;10.97;60.58
64668;BME280;51077;42.716;23.344;2024-03-02T01:13:47;94812.09;;;10.96;60.50
64668;BME280;51077;42.716;23.344;2024-03-02T01:16:13;94814.34;;;10.98;60.46
64668;BME280;51077;42.716;23.344;2024-03-02T01:18:38;94803.88;;;10.96;60.60
64668;BME280;51077;42.716;23.344;2024-03-02T01:21:04;94799.66;;;10.95;60.44
64668;BME280;51077;42.716;23.344;2024-03-02T01:23:29;94803.38;;;10.98;60.53
64668;BME280;51077;42.716;23.344;2024-03-02T01:25:54;94802.81;;;10.99;60.57
64668;BME280;51077;42.716;23.344;2024-03-02T01:28:20;94798.63;;;10.98;60.52
64668;BME280;51077;42.716;23.344;2024-03-02T01:30:46;94792.59;;;11.00;60.64
64668;BME280;51077;42.716;23.344;2024-03-02T01:33:12;94796.81;;;11.01;60.33
64668;BME280;51077;42.716;23.344;2024-03-02T01:35:37;94784.88;;;10.98;60.60
64668;BME280;51077;42.716;23.344;2024-03-02T01:38:03;94782.88;;;10.99;60.67
64668;BME280;51077;42.716;23.344;2024-03-02T01:40:32;94790.56;;;11.00;60.72
64668;BME280;51077;42.716;23.344;2024-03-02T01:42:58;94786.34;;;10.99;60.57
64668;BME280;51077;42.716;23.344;2024-03-02T01:45:24;94783.59;;;10.99;60.32
64668;BME280;51077;42.716;23.344;2024-03-02T01:47:49;94786.34;;;10.99;60.41
64668;BME280;51077;42.716;23.344;2024-03-02T01:50:16;94780.13;;;10.99;60.48
64668;BME280;51077;42.716;23.344;2024-03-02T01:52:41;94778.84;;;11.00;60.59
64668;BME280;51077;42.716;23.344;2024-03-02T01:55:09;94772.44;;;10.97;60.61
64668;BME280;51077;42.716;23.344;2024-03-02T01:57:34;94776.41;;;10.96;60.66
64668;BME280;51077;42.716;23.344;2024-03-02T02:00:00;94781.41;;;10.98;60.74
64668;BME280;51077;42.716;23.344;2024-03-02T02:02:26;94779.38;;;10.98;60.62
64668;BME280;51077;42.716;23.344;2024-03-02T02:04:51;94779.91;;;10.97;60.86
64668;BME280;51077;42.716;23.344;2024-03-02T02:07:17;94771.47;;;10.95;60.57
64668;BME280;51077;42.716;23.344;2024-03-02T02:09:42;94780.44;;;10.95;60.67
64668;BME280;51077;42.716;23.344;2024-03-02T02:12:09;94778.97;;;10.94;60.77
64668;BME280;51077;42.716;23.344;2024-03-02T02:14:35;94776.00;;;10.92;60.68
64668;BME280;51077;42.716;23.344;2024-03-02T02:17:00;94774.00;;;10.93;60.75
64668;BME280;51077;42.716;23.344;2024-03-02T02:19:26;94771.25;;;10.93;60.92
64668;BME280;51077;42.716;23.344;2024-03-02T02:21:51;94775.03;;;10.90;61.07
64668;BME280;51077;42.716;23.344;2024-03-02T02:24:16;94776.31;;;10.89;60.88
64668;BME280;51077;42.716;23.344;2024-03-02T02:26:42;94771.34;;;10.87;61.12
64668;BME280;51077;42.716;23.344;2024-03-02T02:29:07;94768.59;;;10.87;61.02
64668;BME280;51077;42.716;23.344;2024-03-02T02:31:40;94777.06;;;10.89;60.96
64668;BME280;51077;42.716;23.344;2024-03-02T02:34:06;94772.59;;;10.86;61.25
64668;BME280;51077;42.716;23.344;2024-03-02T02:36:32;94770.81;;;10.89;60.98
64668;BME280;51077;42.716;23.344;2024-03-02T02:39:02;94768.59;;;10.87;61.17
64668;BME280;51077;42.716;23.344;2024-03-02T02:41:29;94775.56;;;10.88;61.26
64668;BME280;51077;42.716;23.344;2024-03-02T02:43:55;94768.59;;;10.87;61.34
64668;BME280;51077;42.716;23.344;2024-03-02T02:46:20;94772.81;;;10.88;61.20
64668;BME280;51077;42.716;23.344;2024-03-02T02:48:45;94765.09;;;10.87;61.10
64668;BME280;51077;42.716;23.344;2024-03-02T02:51:11;94765.66;;;10.85;61.28
64668;BME280;51077;42.716;23.344;2024-03-02T02:53:36;94762.16;;;10.85;61.39
64668;BME280;51077;42.716;23.344;2024-03-02T02:56:06;94775.88;;;10.85;61.24
64668;BME280;51077;42.716;23.344;2024-03-02T02:58:31;94765.66;;;10.85;61.20
64668;BME280;51077;42.716;23.344;2024-03-02T03:00:56;94768.91;;;10.83;61.10
64668;BME280;51077;42.716;23.344;2024-03-02T03:03:22;94773.66;;;10.83;61.40
64668;BME280;51077;42.716;23.344;2024-03-02T03:05:48;94766.91;;;10.84;61.32
64668;BME280;51077;42.716;23.344;2024-03-02T03:08:13;94770.41;;;10.85;61.30
64668;BME280;51077;42.716;23.344;2024-03-02T03:10:41;94774.38;;;10.83;61.44
64668;BME280;51077;42.716;23.344;2024-03-02T03:13:06;94773.16;;;10.85;61.29
64668;BME280;51077;42.716;23.344;2024-03-02T03:15:34;94771.66;;;10.83;61.45
64668;BME280;51077;42.716;23.344;2024-03-02T03:18:00;94766.16;;;10.83;61.36
64668;BME280;51077;42.716;23.344;2024-03-02T03:20:25;94767.97;;;10.81;61.27
64668;BME280;51077;42.716;23.344;2024-03-02T03:22:51;94773.44;;;10.81;61.45
64668;BME280;51077;42.716;23.344;2024-03-02T03:25:16;94775.66;;;10.82;61.45
64668;BME280;51077;42.716;23.344;2024-03-02T03:27:41;94778.72;;;10.79;61.27
64668;BME280;51077;42.716;23.344;2024-03-02T03:30:07;94774.72;;;10.80;61.53
64668;BME280;51077;42.716;23.344;2024-03-02T03:32:32;94773.22;;;10.79;61.62
64668;BME280;51077;42.716;23.344;2024-03-02T03:34:58;94768.47;;;10.79;61.55
64668;BME280;51077;42.716;23.344;2024-03-02T03:37:23;94779.69;;;10.81;61.49
64668;BME280;51077;42.716;23.344;2024-03-02T03:39:51;94771.22;;;10.79;61.49
64668;BME280;51077;42.716;23.344;2024-03-02T03:42:16;94780.22;;;10.80;61.65
64668;BME280;51077;42.716;23.344;2024-03-02T03:44:41;94771.75;;;10.78;61.60
64668;BME280;51077;42.716;23.344;2024-03-02T03:47:07;94773.94;;;10.79;61.45
64668;BME280;51077;42.716;23.344;2024-03-02T03:49:32;94777.78;;;10.76;61.51
64668;BME280;51077;42.716;23.344;2024-03-02T03:51:58;94777.22;;;10.78;61.54
64668;BME280;51077;42.716;23.344;2024-03-02T03:54:23;94767.97;;;10.81;61.41
64668;BME280;51077;42.716;23.344;2024-03-02T03:56:48;94770.47;;;10.79;61.43
64668;BME280;51077;42.716;23.344;2024-03-02T03:59:14;94768.47;;;10.79;61.62
64668;BME280;51077;42.716;23.344;2024-03-02T04:01:39;94777.22;;;10.78;61.35
64668;BME280;51077;42.716;23.344;2024-03-02T04:04:05;94767.84;;;10.73;61.62
64668;BME280;51077;42.716;23.344;2024-03-02T04:06:30;94774.59;;;10.72;61.71
64668;BME280;51077;42.716;23.344;2024-03-02T04:08:55;94772.06;;;10.74;61.77
64668;BME280;51077;42.716;23.344;2024-03-02T04:11:21;94764.34;;;10.73;61.65
64668;BME280;51077;42.716;23.344;2024-03-02T04:13:47;94762.88;;;10.72;61.63
64668;BME280;51077;42.716;23.344;2024-03-02T04:16:12;94765.63;;;10.72;61.73
64668;BME280;51077;42.716;23.344;2024-03-02T04:18:37;94778.06;;;10.73;61.78
64668;BME280;51077;42.716;23.344;2024-03-02T04:21:04;94767.63;;;10.71;61.69
64668;BME280;51077;42.716;23.344;2024-03-02T04:23:30;94771.84;;;10.72;61.86
64668;BME280;51077;42.716;23.344;2024-03-02T04:25:55;94769.31;;;10.74;61.82
64668;BME280;51077;42.716;23.344;2024-03-02T04:28:21;94771.63;;;10.70;61.94
64668;BME280;51077;42.716;23.344;2024-03-02T04:30:46;94770.88;;;10.70;61.96
64668;BME280;51077;42.716;23.344;2024-03-02T04:33:11;94776.91;;;10.68;62.13
64668;BME280;51077;42.716;23.344;2024-03-02T04:35:37;94776.38;;;10.70;62.04
64668;BME280;51077;42.716;23.344;2024-03-02T04:38:02;94773.84;;;10.72;61.91
64668;BME280;51077;42.716;23.344;2024-03-02T04:40:28;94777.34;;;10.72;61.83
64668;BME280;51077;42.716;23.344;2024-03-02T04:42:53;94777.09;;;10.70;61.95
64668;BME280;51077;42.716;23.344;2024-03-02T04:45:19;94778.19;;;10.67;62.00
64668;BME280;51077;42.716;23.344;2024-03-02T04:47:45;94787.16;;;10.68;62.17
64668;BME280;51077;42.716;23.344;2024-03-02T04:50:10;94788.81;;;10.71;62.11
64668;BME280;51077;42.716;23.344;2024-03-02T04:52:36;94791.78;;;10.73;62.12
64668;BME280;51077;42.716;23.344;2024-03-02T04:55:02;94789.06;;;10.73;62.00
64668;BME280;51077;42.716;23.344;2024-03-02T04:57:50;94790.31;;;10.72;61.96
64668;BME280;51077;42.716;23.344;2024-03-02T05:00:16;94795.19;;;10.79;61.79
64668;BME280;51077;42.716;23.344;2024-03-02T05:02:42;94791.50;;;10.76;61.83
64668;BME280;51077;42.716;23.344;2024-03-02T05:05:08;94797.28;;;10.73;62.01
64668;BME280;51077;42.716;23.344;2024-03-02T05:07:33;94799.50;;;10.74;62.12
64668;BME280;51077;42.716;23.344;2024-03-02T05:09:59;94793.50;;;10.76;62.06
64668;BME280;51077;42.716;23.344;2024-03-02T05:12:25;94797.50;;;10.75;62.06
64668;BME280;51077;42.716;23.344;2024-03-02T05:15:09;94800.56;;;10.71;62.28
64668;BME280;51077;42.716;23.344;2024-03-02T05:17:38;94809.00;;;10.73;62.22
64668;BME280;51077;42.716;23.344;2024-03-02T05:20:05;94816.69;;;10.75;62.19
64668;BME280;51077;42.716;23.344;2024-03-02T05:22:33;94807.13;;;10.81;64.79
64668;BME280;51077;42.716;23.344;2024-03-02T05:24:59;94804.50;;;10.89;64.11
64668;BME280;51077;42.716;23.344;2024-03-02T05:27:26;94814.22;;;10.90;64.14
64668;BME280;51077;42.716;23.344;2024-03-02T05:29:52;94818.75;;;10.88;64.07
64668;BME280;51077;42.716;23.344;2024-03-02T05:32:17;94818.31;;;10.83;64.16
64668;BME280;51077;42.716;23.344;2024-03-02T05:34:42;94817.06;;;10.85;63.86
64668;BME280;51077;42.716;23.344;2024-03-02T05:37:08;94824.13;;;10.80;64.05
64668;BME280;51077;42.716;23.344;2024-03-02T05:39:33;94826.34;;;10.81;64.22
64668;BME280;51077;42.716;23.344;2024-03-02T05:41:59;94830.13;;;10.78;64.07
64668;BME280;51077;42.716;23.344;2024-03-02T05:44:24;94830.66;;;10.77;64.04
64668;BME280;51077;42.716;23.344;2024-03-02T05:46:50;94841.63;;;10.77;63.91
64668;BME280;51077;42.716;23.344;2024-03-02T05:49:15;94828.97;;;10.74;64.08
64668;BME280;51077;42.716;23.344;2024-03-02T05:51:40;94830.22;;;10.73;64.14
64668;BME280;51077;42.716;23.344;2024-03-02T05:54:06;94829.69;;;10.74;64.04
64668;BME280;51077;42.716;23.344;2024-03-02T05:56:32;94843.41;;;10.74;64.08
64668;BME280;51077;42.716;23.344;2024-03-02T05:58:58;94841.94;;;10.73;63.96
64668;BME280;51077;42.716;23.344;2024-03-02T06:01:52;94839.94;;;10.74;64.07
64668;BME280;51077;42.716;23.344;2024-03-02T06:04:18;94842.69;;;10.74;63.96
64668;BME280;51077;42.716;23.344;2024-03-02T06:06:44;94847.66;;;10.75;64.00
64668;BME280;51077;42.716;23.344;2024-03-02T06:09:09;94837.94;;;10.74;63.90
64668;BME280;51077;42.716;23.344;2024-03-02T06:11:39;94835.91;;;10.75;63.82
64668;BME280;51077;42.716;23.344;2024-03-02T06:14:08;94844.91;;;10.75;63.97
64668;BME280;51077;42.716;23.344;2024-03-02T06:16:34;94835.91;;;10.75;63.92
64668;BME280;51077;42.716;23.344;2024-03-02T06:19:00;94838.66;;;10.75;63.93
64668;BME280;51077;42.716;23.344;2024-03-02T06:21:26;94841.63;;;10.77;63.91
64668;BME280;51077;42.716;23.344;2024-03-02T06:23:52;94839.63;;;10.77;63.89
64668;BME280;51077;42.716;23.344;2024-03-02T06:26:18;94845.31;;;10.79;63.56
64668;BME280;51077;42.716;23.344;2024-03-02T06:28:44;94851.59;;;10.80;63.86
64668;BME280;51077;42.716;23.344;2024-03-02T06:31:09;94851.06;;;10.81;63.76
64668;BME280;51077;42.716;23.344;2024-03-02T06:33:35;94846.28;;;10.82;63.56
64668;BME280;51077;42.716;23.344;2024-03-02T06:36:01;94855.28;;;10.82;63.72
64668;BME280;51077;42.716;23.344;2024-03-02T06:38:26;94852.75;;;10.85;63.66
64668;BME280;51077;42.716;23.344;2024-03-02T06:40:51;94853.25;;;10.83;63.71
64668;BME280;51077;42.716;23.344;2024-03-02T06:43:17;94852.53;;;10.82;63.58
64668;BME280;51077;42.716;23.344;2024-03-02T06:45:42;94850.75;;;10.85;63.57
64668;BME280;51077;42.716;23.344;2024-03-02T06:48:08;94862.66;;;10.88;63.70
64668;BME280;51077;42.716;23.344;2024-03-02T06:50:33;94859.19;;;10.87;63.56
64668;BME280;51077;42.716;23.344;2024-03-02T06:52:59;94860.16;;;10.90;63.58
64668;BME280;51077;42.716;23.344;2024-03-02T06:55:24;94862.91;;;10.90;63.61
64668;BME280;51077;42.716;23.344;2024-03-02T06:57:50;94856.13;;;10.91;63.43
64668;BME280;51077;42.716;23.344;2024-03-02T07:00:16;94856.88;;;10.91;63.49
64668;BME280;51077;42.716;23.344;2024-03-02T07:02:46;94868.84;;;10.94;63.60
64668;BME280;51077;42.716;23.344;2024-03-02T07:05:12;94866.59;;;10.92;63.31
64668;BME280;51077;42.716;23.344;2024-03-02T07:07:38;94865.34;;;10.93;63.40
64668;BME280;51077;42.716;23.344;2024-03-02T07:10:06;94870.84;;;10.93;63.63
64668;BME280;51077;42.716;23.344;2024-03-02T07:12:35;94866.28;;;10.96;63.55
64668;BME280;51077;42.716;23.344;2024-03-02T07:15:01;94878.97;;;10.99;63.50
64668;BME280;51077;42.716;23.344;2024-03-02T07:17:32;94869.69;;;11.02;63.20
64668;BME280;51077;42.716;23.344;2024-03-02T07:19:58;94874.47;;;11.01;63.42
64668;BME280;51077;42.716;23.344;2024-03-02T07:22:24;94877.19;;;11.01;63.47
64668;BME280;51077;42.716;23.344;2024-03-02T07:24:49;94871.72;;;11.01;63.31
64668;BME280;51077;42.716;23.344;2024-03-02T07:27:16;94876.13;;;11.04;63.36
64668;BME280;51077;42.716;23.344;2024-03-02T07:29:42;94873.38;;;11.04;63.36
64668;BME280;51077;42.716;23.344;2024-03-02T07:32:09;94878.69;;;11.02;63.62
64668;BME280;51077;42.716;23.344;2024-03-02T07:34:35;94880.16;;;11.03;63.36
64668;BME280;51077;42.716;23.344;2024-03-02T07:37:01;94875.94;;;11.02;63.43
64668;BME280;51077;42.716;23.344;2024-03-02T07:39:27;94878.88;;;11.04;63.55
64668;BME280;51077;42.716;23.344;2024-03-02T07:41:52;94883.63;;;11.04;63.30
64668;BME280;51077;42.716;23.344;2024-03-02T07:44:18;94889.13;;;11.04;63.37
64668;BME280;51077;42.716;23.344;2024-03-02T07:46:48;94886.63;;;11.06;63.40
64668;BME280;51077;42.716;23.344;2024-03-02T07:49:16;94887.34;;;11.06;63.15
64668;BME280;51077;42.716;23.344;2024-03-02T07:51:42;94890.31;;;11.08;63.37
64668;BME280;51077;42.716;23.344;2024-03-02T07:54:08;94889.38;;;11.06;63.41
64668;BME280;51077;42.716;23.344;2024-03-02T07:56:34;94893.03;;;11.08;63.28
64668;BME280;51077;42.716;23.344;2024-03-02T07:59:01;94894.75;;;11.12;63.33
64668;BME280;51077;42.716;23.344;2024-03-02T08:01:28;94893.28;;;11.11;63.52
64668;BME280;51077;42.716;23.344;2024-03-02T08:03:58;94893.28;;;11.11;63.37
64668;BME280;51077;42.716;23.344;2024-03-02T08:06:25;94895.50;;;11.12;63.50
64668;BME280;51077;42.716;23.344;2024-03-02T08:08:54;94895.50;;;11.12;63.32
64668;BME280;51077;42.716;23.344;2024-03-02T08:11:20;94897.94;;;11.16;63.45
64668;BME280;51077;42.716;23.344;2024-03-02T08:13:46;94893.19;;;11.16;63.23
64668;BME280;51077;42.716;23.344;2024-03-02T08:16:11;94896.13;;;11.18;63.27
64668;BME280;51077;42.716;23.344;2024-03-02T08:18:36;94902.59;;;11.21;63.21
64668;BME280;51077;42.716;23.344;2024-03-02T08:21:02;94904.81;;;11.22;63.10
64668;BME280;51077;42.716;23.344;2024-03-02T08:23:27;94898.06;;;11.23;63.22
64668;BME280;51077;42.716;23.344;2024-03-02T08:25:53;94902.78;;;11.23;63.33
64668;BME280;51077;42.716;23.344;2024-03-02T08:28:18;94885.81;;;11.24;63.14
64668;BME280;51077;42.716;23.344;2024-03-02T08:30:45;94900.28;;;11.25;63.31
64668;BME280;51077;42.716;23.344;2024-03-02T08:33:10;94897.72;;;11.27;63.30
64668;BME280;51077;42.716;23.344;2024-03-02T08:35:36;94897.22;;;11.28;63.18
64668;BME280;51077;42.716;23.344;2024-03-02T08:38:03;94898.16;;;11.31;63.11
64668;BME280;51077;42.716;23.344;2024-03-02T08:40:29;94894.38;;;11.34;63.08
64668;BME280;51077;42.716;23.344;2024-03-02T08:42:55;94897.31;;;11.36;62.92
64668;BME280;51077;42.716;23.344;2024-03-02T08:45:21;94893.53;;;11.39;63.04
64668;BME280;51077;42.716;23.344;2024-03-02T08:47:47;94895.25;;;11.42;63.19
64668;BME280;51077;42.716;23.344;2024-03-02T08:50:13;94899.91;;;11.47;62.88
64668;BME280;51077;42.716;23.344;2024-03-02T08:52:38;94892.06;;;11.51;62.81
64668;BME280;51077;42.716;23.344;2024-03-02T08:55:04;94891.47;;;11.58;62.61
64668;BME280;51077;42.716;23.344;2024-03-02T08:57:30;94893.13;;;11.62;62.69
64668;BME280;51077;42.716;23.344;2024-03-02T08:59:56;94896.53;;;11.68;62.61
64668;BME280;51077;42.716;23.344;2024-03-02T09:02:22;94900.56;;;11.80;62.29
64668;BME280;51077;42.716;23.344;2024-03-02T09:04:48;94896.25;;;11.85;62.18
64668;BME280;51077;42.716;23.344;2024-03-02T09:07:14;94896.13;;;11.90;62.18
64668;BME280;51077;42.716;23.344;2024-03-02T09:09:39;94900.25;;;11.97;61.91
64668;BME280;51077;42.716;23.344;2024-03-02T09:12:06;94902.91;;;12.02;61.78
64668;BME280;51077;42.716;23.344;2024-03-02T09:14:32;94904.50;;;12.11;61.61
64668;BME280;51077;42.716;23.344;2024-03-02T09:16:58;94905.66;;;12.16;61.56
64668;BME280;51077;42.716;23.344;2024-03-02T09:19:23;94908.59;;;12.18;61.58
64668;BME280;51077;42.716;23.344;2024-03-02T09:21:49;94905.53;;;12.21;61.38
64668;BME280;51077;42.716;23.344;2024-03-02T09:24:15;94908.69;;;12.25;61.38
64668;BME280;51077;42.716;23.344;2024-03-02T09:26:40;94911.66;;;12.27;61.33
64668;BME280;51077;42.716;23.344;2024-03-02T09:29:06;94910.59;;;12.30;61.16
64668;BME280;51077;42.716;23.344;2024-03-02T09:31:31;94917.56;;;12.31;61.16
64668;BME280;51077;42.716;23.344;2024-03-02T09:33:57;94913.03;;;12.34;61.29
64668;BME280;51077;42.716;23.344;2024-03-02T09:36:23;94923.28;;;12.33;61.33
64668;BME280;51077;42.716;23.344;2024-03-02T09:38:48;94917.78;;;12.33;61.12
64668;BME280;51077;42.716;23.344;2024-03-02T09:41:14;94921.28;;;12.34;61.12
64668;BME280;51077;42.716;23.344;2024-03-02T09:43:40;94920.00;;;12.35;61.03
64668;BME280;51077;42.716;23.344;2024-03-02T09:46:07;94916.94;;;12.39;61.06
64668;BME280;51077;42.716;23.344;2024-03-02T09:48:33;94916.19;;;12.38;61.19
64668;BME280;51077;42.716;23.344;2024-03-02T09:51:00;94912.16;;;12.39;61.09
64668;BME280;51077;42.716;23.344;2024-03-02T09:53:31;94923.41;;;12.41;61.17
64668;BME280;51077;42.716;23.344;2024-03-02T09:55:57;94920.09;;;12.43;61.06
64668;BME280;51077;42.716;23.344;2024-03-02T09:58:22;94928.91;;;12.41;61.10
64668;BME280;51077;42.716;23.344;2024-03-02T10:00:47;94926.75;;;12.47;61.04
64668;BME280;51077;42.716;23.344;2024-03-02T10:03:14;94920.50;;;12.47;61.05
64668;BME280;51077;42.716;23.344;2024-03-02T10:05:40;94926.94;;;12.49;60.80
64668;BME280;51077;42.716;23.344;2024-03-02T10:08:05;94914.56;;;12.56;60.89
64668;BME280;51077;42.716;23.344;2024-03-02T10:10:39;94924.72;;;12.61;60.68
64668;BME280;51077;42.716;23.344;2024-03-02T10:13:09;94924.19;;;12.63;60.44
64668;BME280;51077;42.716;23.344;2024-03-02T10:15:36;94929.56;;;12.68;60.52
64668;BME280;51077;42.716;23.344;2024-03-02T10:20:48;94916.41;;;12.74;60.35
64668;BME280;51077;42.716;23.344;2024-03-02T10:23:15;94917.56;;;12.79;60.19
64668;BME280;51077;42.716;23.344;2024-03-02T10:25:42;94911.94;;;12.85;60.24
64668;BME280;51077;42.716;23.344;2024-03-02T10:28:08;94913.81;;;12.90;60.12
64668;BME280;51077;42.716;23.344;2024-03-02T10:30:34;94913.50;;;12.93;60.04
64668;BME280;51077;42.716;23.344;2024-03-02T10:33:01;94919.75;;;12.94;60.17
64668;BME280;51077;42.716;23.344;2024-03-02T10:35:27;94915.16;;;12.96;60.09
64668;BME280;51077;42.716;23.344;2024-03-02T10:37:53;94914.28;;;13.01;60.15
64668;BME280;51077;42.716;23.344;2024-03-02T10:40:21;94916.19;;;13.06;60.09
64668;BME280;51077;42.716;23.344;2024-03-02T10:42:47;94912.72;;;13.06;59.96
64668;BME280;51077;42.716;23.344;2024-03-02T10:45:15;94912.91;;;13.08;59.94
64668;BME280;51077;42.716;23.344;2024-03-02T10:47:42;94909.59;;;13.09;60.07
64668;BME280;51077;42.716;23.344;2024-03-02T10:50:09;94904.44;;;13.06;60.06
64668;BME280;51077;42.716;23.344;2024-03-02T10:52:35;94912.16;;;13.07;59.99
64668;BME280;51077;42.716;23.344;2024-03-02T10:55:01;94897.31;;;13.11;59.97
64668;BME280;51077;42.716;23.344;2024-03-02T10:57:33;94904.63;;;13.08;60.00
64668;BME280;51077;42.716;23.344;2024-03-02T11:00:03;94901.53;;;13.12;59.90
64668;BME280;51077;42.716;23.344;2024-03-02T11:02:34;94895.06;;;13.09;59.96
64668;BME280;51077;42.716;23.344;2024-03-02T11:05:04;94898.06;;;13.11;59.99
64668;BME280;51077;42.716;23.344;2024-03-02T11:07:33;94899.31;;;13.10;59.78
64668;BME280;51077;42.716;23.344;2024-03-02T11:10:00;94893.59;;;13.08;60.08
64668;BME280;51077;42.716;23.344;2024-03-02T11:12:38;94900.91;;;13.05;59.96
64668;BME280;51077;42.716;23.344;2024-03-02T11:15:10;94888.97;;;13.03;60.04
64668;BME280;51077;42.716;23.344;2024-03-02T11:17:39;94894.50;;;13.03;60.14
64668;BME280;51077;42.716;23.344;2024-03-02T11:20:06;94896.28;;;13.00;60.21
64668;BME280;51077;42.716;23.344;2024-03-02T11:22:35;94893.75;;;13.02;60.18
64668;BME280;51077;42.716;23.344;2024-03-02T11:25:01;94891.88;;;12.97;60.21
64668;BME280;51077;42.716;23.344;2024-03-02T11:28:00;94893.13;;;12.96;60.36
64668;BME280;51077;42.716;23.344;2024-03-02T11:33:01;94886.16;;;12.95;60.51
64668;BME280;51077;42.716;23.344;2024-03-02T11:35:43;94893.34;;;12.98;60.14
64668;BME280;51077;42.716;23.344;2024-03-02T11:38:12;94886.56;;;12.99;60.30
64668;BME280;51077;42.716;23.344;2024-03-02T11:40:39;94883.78;;;12.99;60.19
64668;BME280;51077;42.716;23.344;2024-03-02T11:43:06;94889.50;;;13.01;60.22
64668;BME280;51077;42.716;23.344;2024-03-02T11:45:31;94881.31;;;13.09;59.94
64668;BME280;51077;42.716;23.344;2024-03-02T11:47:59;94891.25;;;13.12;60.07
64668;BME280;51077;42.716;23.344;2024-03-02T11:50:41;94889.09;;;13.18;60.11
64668;BME280;51077;42.716;23.344;2024-03-02T11:53:08;94890.78;;;13.21;60.00
64668;BME280;51077;42.716;23.344;2024-03-02T11:55:35;94891.22;;;13.25;59.86
64668;BME280;51077;42.716;23.344;2024-03-02T11:58:05;94891.41;;;13.27;59.66
64668;BME280;51077;42.716;23.344;2024-03-02T12:00:30;94889.41;;;13.28;59.70
64668;BME280;51077;42.716;23.344;2024-03-02T12:05:27;94885.44;;;13.37;59.48
64668;BME280;51077;42.716;23.344;2024-03-02T12:08:06;94878.31;;;13.41;59.43
64668;BME280;51077;42.716;23.344;2024-03-02T12:10:33;94879.78;;;13.42;59.36
64668;BME280;51077;42.716;23.344;2024-03-02T12:13:03;94885.28;;;13.42;59.25
64668;BME280;51077;42.716;23.344;2024-03-02T12:15:33;94885.47;;;13.44;58.92
64668;BME280;51077;42.716;23.344;2024-03-02T12:18:00;94878.69;;;13.45;59.00
64668;BME280;51077;42.716;23.344;2024-03-02T12:20:28;94885.47;;;13.44;58.99
64668;BME280;51077;42.716;23.344;2024-03-02T12:22:55;94882.72;;;13.44;59.12
64668;BME280;51077;42.716;23.344;2024-03-02T12:25:23;94884.56;;;13.42;59.14
64668;BME280;51077;42.716;23.344;2024-03-02T12:27:51;94890.81;;;13.42;58.90
64668;BME280;51077;42.716;23.344;2024-03-02T12:30:17;94888.38;;;13.39;59.31
64668;BME280;51077;42.716;23.344;2024-03-02T12:32:44;94887.84;;;13.40;59.06
64668;BME280;51077;42.716;23.344;2024-03-02T12:35:10;94888.38;;;13.39;59.11
64668;BME280;51077;42.716;23.344;2024-03-02T12:37:47;94883.59;;;13.39;59.19
64668;BME280;51077;42.716;23.344;2024-03-02T12:40:14;94882.13;;;13.38;59.10
64668;BME280;51077;42.716;23.344;2024-03-02T12:42:40;94886.75;;;13.43;58.79
64668;BME280;51077;42.716;23.344;2024-03-02T12:45:09;94877.75;;;13.43;59.05
64668;BME280;51077;42.716;23.344;2024-03-02T12:47:35;94887.72;;;13.46;58.82
64668;BME280;51077;42.716;23.344;2024-03-02T12:50:02;94890.09;;;13.49;58.86
64668;BME280;51077;42.716;23.344;2024-03-02T12:52:28;94883.50;;;13.52;58.78
64668;BME280;51077;42.716;23.344;2024-03-02T12:54:53;94889.03;;;13.52;58.76
64668;BME280;51077;42.716;23.344;2024-03-02T12:57:25;94890.50;;;13.53;58.75